createdAt,value
2023-09-03T00:00:08.513Z,12.94
2023-09-03T00:02:35.095Z,12.92
2023-09-03T00:05:01.679Z,12.93
2023-09-03T00:07:28.320Z,12.88
2023-09-03T00:09:54.903Z,12.83
2023-09-03T00:12:21.489Z,12.80
2023-09-03T00:14:48.256Z,12.75
2023-09-03T00:17:15.860Z,12.75
2023-09-03T00:19:49.338Z,12.74
2023-09-03T00:22:15.956Z,12.71
2023-09-03T00:24:42.456Z,12.73
2023-09-03T00:27:09.157Z,12.68
2023-09-03T00:29:36.831Z,12.66
2023-09-03T00:32:04.448Z,12.66
2023-09-03T00:34:33.758Z,12.63
2023-09-03T00:37:00.681Z,12.56
2023-09-03T00:39:27.325Z,12.50
2023-09-03T00:41:54.347Z,12.45
2023-09-03T00:44:23.204Z,12.40
2023-09-03T00:46:50.054Z,12.41
2023-09-03T00:49:21.370Z,12.40
2023-09-03T00:51:49.656Z,12.41
2023-09-03T00:54:16.316Z,12.39
2023-09-03T00:56:45.776Z,12.39
2023-09-03T00:59:12.373Z,12.38
2023-09-03T01:01:39.924Z,12.29
2023-09-03T01:04:06.576Z,12.24
2023-09-03T01:06:46.526Z,12.19
2023-09-03T01:09:13.183Z,12.17
2023-09-03T01:11:44.858Z,12.17
2023-09-03T01:14:24.712Z,12.20
2023-09-03T01:17:19.960Z,12.23
2023-09-03T01:19:58.357Z,12.25
2023-09-03T01:22:55.289Z,12.21
2023-09-03T01:25:46.970Z,12.23
2023-09-03T01:28:31.586Z,12.24
2023-09-03T01:31:02.988Z,12.32
2023-09-03T01:33:31.887Z,12.35
2023-09-03T01:36:12.680Z,12.41
2023-09-03T01:38:40.696Z,12.45
2023-09-03T01:41:08.688Z,12.50
2023-09-03T01:43:38.829Z,12.51
2023-09-03T01:46:08.575Z,12.59
2023-09-03T01:48:50.174Z,12.62
2023-09-03T01:51:25.778Z,12.65
2023-09-03T01:54:03.902Z,12.66
2023-09-03T01:56:35.989Z,12.68
2023-09-03T01:59:12.891Z,12.69
2023-09-03T02:01:39.640Z,12.69
2023-09-03T02:04:06.308Z,12.68
2023-09-03T02:06:32.827Z,12.69
2023-09-03T02:09:02.275Z,12.69
2023-09-03T02:11:28.763Z,12.69
2023-09-03T02:13:55.437Z,12.66
2023-09-03T02:16:22.664Z,12.63
2023-09-03T02:18:49.179Z,12.64
2023-09-03T02:21:28.231Z,12.63
2023-09-03T02:23:54.815Z,12.61
2023-09-03T02:26:21.331Z,12.55
2023-09-03T02:28:47.885Z,12.50
2023-09-03T02:31:14.494Z,12.45
2023-09-03T02:33:41.030Z,12.45
2023-09-03T02:36:07.706Z,12.44
2023-09-03T02:38:36.834Z,12.44
2023-09-03T02:41:03.418Z,12.40
2023-09-03T02:43:30.354Z,12.42
2023-09-03T02:45:56.941Z,12.43
2023-09-03T02:48:23.653Z,12.43
2023-09-03T02:50:50.250Z,12.43
2023-09-03T02:53:16.741Z,12.43
2023-09-03T02:55:48.902Z,12.37
2023-09-03T02:58:15.445Z,12.35
2023-09-03T03:00:41.997Z,12.34
2023-09-03T03:03:08.655Z,12.36
2023-09-03T03:05:35.565Z,12.37
2023-09-03T03:08:04.197Z,12.36
2023-09-03T03:10:30.891Z,12.34
2023-09-03T03:12:57.385Z,12.31
2023-09-03T03:15:23.919Z,12.27
2023-09-03T03:17:50.513Z,12.24
2023-09-03T03:20:17.283Z,12.23
2023-09-03T03:22:44.739Z,12.23
2023-09-03T03:25:23.791Z,12.19
2023-09-03T03:27:50.285Z,12.12
2023-09-03T03:30:16.809Z,12.08
2023-09-03T03:32:43.390Z,12.05
2023-09-03T03:35:10.275Z,12.00
2023-09-03T03:37:36.895Z,11.95
2023-09-03T03:40:04.986Z,11.92
2023-09-03T03:42:32.207Z,11.91
2023-09-03T03:44:58.739Z,11.95
2023-09-03T03:47:25.267Z,11.97
2023-09-03T03:49:52.258Z,11.96
2023-09-03T03:52:18.970Z,11.96
2023-09-03T03:54:45.560Z,12.00
2023-09-03T03:57:12.080Z,11.99
2023-09-03T03:59:38.656Z,11.98
2023-09-03T04:02:05.275Z,11.96
2023-09-03T04:04:31.801Z,11.94
2023-09-03T04:06:58.419Z,11.99
2023-09-03T04:09:24.906Z,11.97
2023-09-03T04:11:51.438Z,11.97
2023-09-03T04:14:17.993Z,11.99
2023-09-03T04:16:44.579Z,11.99
2023-09-03T04:19:12.793Z,11.97
2023-09-03T04:21:39.413Z,12.03
2023-09-03T04:24:07.649Z,12.06
2023-09-03T04:26:34.251Z,12.08
2023-09-03T04:29:00.890Z,12.08
2023-09-03T04:31:27.464Z,12.10
2023-09-03T04:33:54.139Z,12.12
2023-09-03T04:36:20.693Z,12.14
2023-09-03T04:38:47.251Z,12.12
2023-09-03T04:41:13.788Z,12.09
2023-09-03T04:43:47.205Z,12.08
2023-09-03T04:46:13.753Z,12.05
2023-09-03T04:48:40.417Z,12.02
2023-09-03T04:51:08.622Z,12.02
2023-09-03T04:53:35.359Z,12.04
2023-09-03T04:56:03.562Z,12.04
2023-09-03T04:58:30.244Z,12.03
2023-09-03T05:00:56.747Z,12.01
2023-09-03T05:03:23.404Z,11.96
2023-09-03T05:05:49.914Z,11.92
2023-09-03T05:08:16.432Z,11.90
2023-09-03T05:10:43.060Z,11.85
2023-09-03T05:13:09.611Z,11.85
2023-09-03T05:15:37.891Z,11.87
2023-09-03T05:18:04.630Z,11.89
2023-09-03T05:20:31.268Z,11.91
2023-09-03T05:22:57.765Z,11.92
2023-09-03T05:25:24.267Z,11.93
2023-09-03T05:27:50.875Z,11.88
2023-09-03T05:30:17.454Z,11.90
2023-09-03T05:32:44.113Z,11.92
2023-09-03T05:35:11.082Z,11.97
2023-09-03T05:37:37.804Z,12.01
2023-09-03T05:40:05.961Z,12.03
2023-09-03T05:42:32.691Z,12.05
2023-09-03T05:45:02.176Z,12.04
2023-09-03T05:47:28.738Z,12.07
2023-09-03T05:49:56.474Z,12.12
2023-09-03T05:52:23.017Z,12.21
2023-09-03T05:54:49.558Z,12.27
2023-09-03T05:57:16.169Z,12.35
2023-09-03T05:59:42.693Z,12.44
2023-09-03T06:02:09.334Z,12.51
2023-09-03T06:04:35.901Z,12.57
2023-09-03T06:07:02.432Z,12.60
2023-09-03T06:09:28.992Z,12.64
2023-09-03T06:11:55.566Z,12.70
2023-09-03T06:14:22.118Z,12.78
2023-09-03T06:16:48.664Z,12.88
2023-09-03T06:19:15.626Z,12.97
2023-09-03T06:21:42.225Z,13.01
2023-09-03T06:24:09.078Z,13.08
2023-09-03T06:26:35.630Z,13.17
2023-09-03T06:29:02.149Z,13.26
2023-09-03T06:31:28.855Z,13.33
2023-09-03T06:33:55.658Z,13.39
2023-09-03T06:36:22.292Z,13.49
2023-09-03T06:38:48.833Z,13.57
2023-09-03T06:41:15.780Z,13.62
2023-09-03T06:43:42.389Z,13.72
2023-09-03T06:46:09.615Z,13.81
2023-09-03T06:48:37.428Z,13.91
2023-09-03T06:51:04.836Z,14.00
2023-09-03T06:53:31.450Z,14.09
2023-09-03T06:55:58.410Z,14.14
2023-09-03T06:58:25.043Z,14.17
2023-09-03T07:00:53.830Z,14.21
2023-09-03T07:03:22.041Z,14.27
2023-09-03T07:05:48.699Z,14.30
2023-09-03T07:08:15.360Z,14.37
2023-09-03T07:10:41.987Z,14.42
2023-09-03T07:13:09.979Z,14.45
2023-09-03T07:15:37.498Z,14.51
2023-09-03T07:18:05.668Z,14.66
2023-09-03T07:20:35.390Z,14.72
2023-09-03T07:23:01.983Z,14.79
2023-09-03T07:25:32.713Z,14.81
2023-09-03T07:27:59.301Z,14.88
2023-09-03T07:30:25.993Z,14.95
2023-09-03T07:32:52.614Z,15.00
2023-09-03T07:35:19.492Z,15.11
2023-09-03T07:37:46.182Z,15.17
2023-09-03T07:40:13.041Z,15.22
2023-09-03T07:42:39.888Z,15.30
2023-09-03T07:45:07.184Z,15.39
2023-09-03T07:47:33.895Z,15.46
2023-09-03T07:50:02.336Z,15.57
2023-09-03T07:52:29.110Z,15.65
2023-09-03T07:54:55.668Z,15.75
2023-09-03T07:57:22.419Z,15.78
2023-09-03T07:59:51.607Z,15.78
2023-09-03T08:02:18.169Z,15.79
2023-09-03T08:04:48.505Z,15.83
2023-09-03T08:07:15.017Z,15.91
2023-09-03T08:09:42.120Z,15.92
2023-09-03T08:12:08.658Z,16.00
2023-09-03T08:14:35.248Z,16.07
2023-09-03T08:17:01.746Z,16.16
2023-09-03T08:19:28.473Z,16.26
2023-09-03T08:21:55.091Z,16.34
2023-09-03T08:24:21.734Z,16.52
2023-09-03T08:26:51.191Z,16.61
2023-09-03T08:29:17.775Z,16.70
2023-09-03T08:31:44.355Z,16.81
2023-09-03T08:34:11.441Z,16.97
2023-09-03T08:36:38.039Z,16.99
2023-09-03T08:39:07.206Z,17.10
2023-09-03T08:41:42.448Z,17.21
2023-09-03T08:44:35.988Z,17.31
2023-09-03T08:47:17.525Z,17.46
2023-09-03T08:49:59.870Z,17.55
2023-09-03T08:52:29.220Z,17.66
2023-09-03T08:54:56.606Z,17.77
2023-09-03T09:00:24.831Z,18.08
2023-09-03T09:02:53.499Z,18.17
2023-09-03T09:05:31.271Z,18.26
2023-09-03T09:07:59.665Z,18.31
2023-09-03T09:10:33.296Z,18.38
2023-09-03T09:13:07.912Z,18.39
2023-09-03T09:15:40.916Z,18.47
2023-09-03T09:18:11.864Z,18.51
2023-09-03T09:20:42.594Z,18.53
2023-09-03T09:23:09.877Z,18.62
2023-09-03T09:25:37.519Z,18.73
2023-09-03T09:28:14.329Z,18.82
2023-09-03T09:30:58.202Z,18.85
2023-09-03T09:33:26.246Z,18.86
2023-09-03T09:35:54.844Z,18.91
2023-09-03T09:38:36.090Z,18.99
2023-09-03T09:41:22.332Z,19.09
2023-09-03T09:43:49.084Z,19.20
2023-09-03T09:46:29.529Z,19.27
2023-09-03T09:48:58.175Z,19.29
2023-09-03T09:51:26.301Z,19.47
2023-09-03T09:54:04.312Z,19.77
2023-09-03T09:56:37.414Z,19.88
2023-09-03T09:59:05.537Z,19.96
2023-09-03T10:01:47.540Z,20.02
2023-09-03T10:04:14.468Z,19.97
2023-09-03T10:06:42.076Z,19.95
2023-09-03T10:09:09.770Z,19.95
2023-09-03T10:11:36.543Z,20.06
2023-09-03T10:14:03.162Z,20.17
2023-09-03T10:16:33.448Z,20.33
2023-09-03T10:19:19.567Z,20.38
2023-09-03T10:22:28.504Z,20.39
2023-09-03T10:25:25.150Z,20.40
2023-09-03T10:27:58.422Z,20.42
2023-09-03T10:30:31.325Z,20.54
2023-09-03T10:32:59.163Z,20.74
2023-09-03T10:35:25.956Z,20.87
2023-09-03T10:37:52.862Z,20.84
2023-09-03T10:40:26.055Z,20.81
2023-09-03T10:42:54.702Z,20.85
2023-09-03T10:45:28.052Z,20.92
2023-09-03T10:48:05.152Z,20.93
2023-09-03T10:51:02.054Z,20.90
2023-09-03T10:53:40.645Z,20.94
2023-09-03T10:56:51.085Z,21.05
2023-09-03T10:59:17.643Z,21.05
2023-09-03T11:01:46.893Z,21.17
2023-09-03T11:04:16.306Z,21.25
2023-09-03T11:07:15.169Z,21.33
2023-09-03T11:09:41.934Z,21.34
2023-09-03T11:12:08.680Z,21.43
2023-09-03T11:14:36.079Z,21.50
2023-09-03T11:17:09.777Z,21.49
2023-09-03T11:19:42.284Z,21.55
2023-09-03T11:22:09.405Z,21.64
2023-09-03T11:24:59.251Z,21.69
2023-09-03T11:27:25.894Z,21.78
2023-09-03T11:30:04.341Z,21.89
2023-09-03T11:32:38.517Z,21.91
2023-09-03T11:35:08.358Z,21.83
2023-09-03T11:37:36.761Z,22.02
2023-09-03T11:40:05.425Z,22.08
2023-09-03T11:42:33.146Z,22.06
2023-09-03T11:44:59.677Z,21.97
2023-09-03T11:47:26.295Z,22.11
2023-09-03T11:49:53.030Z,22.28
2023-09-03T11:52:19.727Z,22.37
2023-09-03T11:54:46.613Z,22.46
2023-09-03T11:57:16.475Z,22.48
2023-09-03T11:59:43.687Z,22.46
2023-09-03T12:02:30.408Z,22.47
2023-09-03T12:04:57.476Z,22.53
2023-09-03T12:07:24.083Z,22.44
